sensor_id;sensor_type;location;lat;lon;timestamp;temperature;humidity
796;DHT22;381;48.770;9.188;2023-07-13T00:00:12;23.80;83.30
796;DHT22;381;48.770;9.188;2023-07-13T00:05:16;23.80;83.10
796;DHT22;381;48.770;9.188;2023-07-13T00:10:20;23.80;79.40
796;DHT22;381;48.770;9.188;2023-07-13T00:15:24;23.70;79.90
796;DHT22;381;48.770;9.188;2023-07-13T00:20:27;23.60;79.60
796;DHT22;381;48.770;9.188;2023-07-13T00:25:30;23.60;81.50
796;DHT22;381;48.770;9.188;2023-07-13T00:30:32;23.50;76.60
796;DHT22;381;48.770;9.188;2023-07-13T00:35:34;23.50;78.10
796;DHT22;381;48.770;9.188;2023-07-13T00:40:38;23.40;79.10
796;DHT22;381;48.770;9.188;2023-07-13T00:46:09;23.40;76.90
796;DHT22;381;48.770;9.188;2023-07-13T00:51:12;23.30;79.50
796;DHT22;381;48.770;9.188;2023-07-13T00:56:17;23.30;82.30
796;DHT22;381;48.770;9.188;2023-07-13T01:01:19;23.30;78.00
796;DHT22;381;48.770;9.188;2023-07-13T01:06:21;23.20;82.50
796;DHT22;381;48.770;9.188;2023-07-13T01:11:25;23.20;78.10
796;DHT22;381;48.770;9.188;2023-07-13T01:16:30;23.20;80.20
796;DHT22;381;48.770;9.188;2023-07-13T01:21:34;23.20;77.90
796;DHT22;381;48.770;9.188;2023-07-13T01:26:36;23.20;78.30
796;DHT22;381;48.770;9.188;2023-07-13T01:31:41;23.10;79.20
796;DHT22;381;48.770;9.188;2023-07-13T01:36:46;23.00;79.20
796;DHT22;381;48.770;9.188;2023-07-13T01:41:48;23.00;79.90
796;DHT22;381;48.770;9.188;2023-07-13T01:46:53;22.90;79.60
796;DHT22;381;48.770;9.188;2023-07-13T01:51:57;22.80;78.20
796;DHT22;381;48.770;9.188;2023-07-13T01:56:59;22.80;82.10
796;DHT22;381;48.770;9.188;2023-07-13T02:02:01;22.70;81.70
796;DHT22;381;48.770;9.188;2023-07-13T02:07:05;22.60;78.90
796;DHT22;381;48.770;9.188;2023-07-13T02:12:07;22.50;79.30
796;DHT22;381;48.770;9.188;2023-07-13T02:17:10;22.30;80.00
796;DHT22;381;48.770;9.188;2023-07-13T02:22:13;22.20;80.60
796;DHT22;381;48.770;9.188;2023-07-13T02:27:16;22.10;80.40
796;DHT22;381;48.770;9.188;2023-07-13T02:32:18;22.00;80.10
796;DHT22;381;48.770;9.188;2023-07-13T02:37:21;21.90;80.30
796;DHT22;381;48.770;9.188;2023-07-13T02:42:23;21.70;78.70
796;DHT22;381;48.770;9.188;2023-07-13T02:47:26;21.60;79.20
796;DHT22;381;48.770;9.188;2023-07-13T02:52:29;21.50;79.00
796;DHT22;381;48.770;9.188;2023-07-13T02:57:32;21.40;79.90
796;DHT22;381;48.770;9.188;2023-07-13T03:02:35;21.40;79.30
796;DHT22;381;48.770;9.188;2023-07-13T03:07:38;21.30;79.70
796;DHT22;381;48.770;9.188;2023-07-13T03:12:41;21.20;79.80
796;DHT22;381;48.770;9.188;2023-07-13T03:17:52;21.20;79.40
796;DHT22;381;48.770;9.188;2023-07-13T03:22:56;21.10;79.60
796;DHT22;381;48.770;9.188;2023-07-13T03:27:58;21.00;79.50
796;DHT22;381;48.770;9.188;2023-07-13T03:33:01;21.00;80.10
796;DHT22;381;48.770;9.188;2023-07-13T03:38:05;21.10;80.00
796;DHT22;381;48.770;9.188;2023-07-13T03:43:07;21.20;80.90
796;DHT22;381;48.770;9.188;2023-07-13T03:48:10;21.20;82.80
796;DHT22;381;48.770;9.188;2023-07-13T03:53:14;21.30;81.60
796;DHT22;381;48.770;9.188;2023-07-13T03:58:26;21.40;82.80
796;DHT22;381;48.770;9.188;2023-07-13T04:03:33;21.50;84.40
796;DHT22;381;48.770;9.188;2023-07-13T04:08:37;21.50;84.30
796;DHT22;381;48.770;9.188;2023-07-13T04:13:40;21.60;85.50
796;DHT22;381;48.770;9.188;2023-07-13T04:18:42;21.70;83.10
796;DHT22;381;48.770;9.188;2023-07-13T04:23:45;21.70;85.00
796;DHT22;381;48.770;9.188;2023-07-13T04:28:48;21.70;84.70
796;DHT22;381;48.770;9.188;2023-07-13T04:33:50;21.80;84.60
796;DHT22;381;48.770;9.188;2023-07-13T04:38:54;21.90;83.50
796;DHT22;381;48.770;9.188;2023-07-13T04:43:56;22.00;81.70
796;DHT22;381;48.770;9.188;2023-07-13T04:48:58;22.00;80.80
796;DHT22;381;48.770;9.188;2023-07-13T04:54:02;22.10;77.10
796;DHT22;381;48.770;9.188;2023-07-13T04:59:05;22.10;82.50
796;DHT22;381;48.770;9.188;2023-07-13T05:04:08;22.10;81.20
796;DHT22;381;48.770;9.188;2023-07-13T05:09:11;22.20;82.50
796;DHT22;381;48.770;9.188;2023-07-13T05:14:14;22.20;83.30
796;DHT22;381;48.770;9.188;2023-07-13T05:19:17;22.20;82.60
796;DHT22;381;48.770;9.188;2023-07-13T05:24:20;22.40;84.10
796;DHT22;381;48.770;9.188;2023-07-13T05:29:22;22.50;82.50
796;DHT22;381;48.770;9.188;2023-07-13T05:34:28;22.60;82.70
796;DHT22;381;48.770;9.188;2023-07-13T05:39:35;22.70;79.50
796;DHT22;381;48.770;9.188;2023-07-13T05:44:37;22.80;79.60
796;DHT22;381;48.770;9.188;2023-07-13T05:49:39;22.90;79.80
796;DHT22;381;48.770;9.188;2023-07-13T05:54:43;22.90;77.20
796;DHT22;381;48.770;9.188;2023-07-13T05:59:45;23.00;78.20
796;DHT22;381;48.770;9.188;2023-07-13T06:04:47;23.00;77.30
796;DHT22;381;48.770;9.188;2023-07-13T06:09:51;23.00;79.00
796;DHT22;381;48.770;9.188;2023-07-13T06:14:53;22.90;78.10
796;DHT22;381;48.770;9.188;2023-07-13T06:19:55;23.00;74.90
796;DHT22;381;48.770;9.188;2023-07-13T06:24:58;23.00;74.40
796;DHT22;381;48.770;9.188;2023-07-13T06:30:00;23.00;74.00
796;DHT22;381;48.770;9.188;2023-07-13T06:35:03;23.10;73.40
796;DHT22;381;48.770;9.188;2023-07-13T06:40:08;23.20;76.60
796;DHT22;381;48.770;9.188;2023-07-13T06:45:10;23.20;74.50
796;DHT22;381;48.770;9.188;2023-07-13T06:50:12;23.40;75.60
796;DHT22;381;48.770;9.188;2023-07-13T06:55:16;23.70;70.70
796;DHT22;381;48.770;9.188;2023-07-13T07:00:18;24.00;72.80
796;DHT22;381;48.770;9.188;2023-07-13T07:05:20;24.40;71.60
796;DHT22;381;48.770;9.188;2023-07-13T07:10:25;24.70;70.30
796;DHT22;381;48.770;9.188;2023-07-13T07:15:27;24.70;68.10
796;DHT22;381;48.770;9.188;2023-07-13T07:20:29;24.80;68.30
796;DHT22;381;48.770;9.188;2023-07-13T07:25:34;25.00;68.20
796;DHT22;381;48.770;9.188;2023-07-13T07:30:42;25.20;64.70
796;DHT22;381;48.770;9.188;2023-07-13T07:35:44;25.50;65.60
796;DHT22;381;48.770;9.188;2023-07-13T07:40:48;25.80;66.50
796;DHT22;381;48.770;9.188;2023-07-13T07:45:50;26.20;62.70
796;DHT22;381;48.770;9.188;2023-07-13T07:50:52;26.60;61.70
796;DHT22;381;48.770;9.188;2023-07-13T07:55:55;26.90;59.70
796;DHT22;381;48.770;9.188;2023-07-13T08:01:02;27.40;60.80
796;DHT22;381;48.770;9.188;2023-07-13T08:06:05;27.80;59.60
796;DHT22;381;48.770;9.188;2023-07-13T08:11:09;28.30;58.90
796;DHT22;381;48.770;9.188;2023-07-13T08:16:12;28.80;57.50
796;DHT22;381;48.770;9.188;2023-07-13T08:21:14;29.20;57.00
796;DHT22;381;48.770;9.188;2023-07-13T08:26:17;29.50;55.00
796;DHT22;381;48.770;9.188;2023-07-13T08:31:19;29.80;55.80
796;DHT22;381;48.770;9.188;2023-07-13T08:36:22;30.10;55.70
796;DHT22;381;48.770;9.188;2023-07-13T08:41:46;30.40;54.80
796;DHT22;381;48.770;9.188;2023-07-13T08:46:58;30.60;51.10
796;DHT22;381;48.770;9.188;2023-07-13T08:52:03;30.60;54.00
796;DHT22;381;48.770;9.188;2023-07-13T08:57:13;30.80;53.40
796;DHT22;381;48.770;9.188;2023-07-13T09:02:26;30.90;53.20
796;DHT22;381;48.770;9.188;2023-07-13T09:07:35;30.80;53.40
796;DHT22;381;48.770;9.188;2023-07-13T09:12:55;30.50;52.60
796;DHT22;381;48.770;9.188;2023-07-13T09:18:03;30.50;53.50
796;DHT22;381;48.770;9.188;2023-07-13T09:23:13;30.50;52.90
796;DHT22;381;48.770;9.188;2023-07-13T09:28:19;30.40;53.30
796;DHT22;381;48.770;9.188;2023-07-13T09:33:23;30.10;52.10
796;DHT22;381;48.770;9.188;2023-07-13T09:38:27;30.30;51.10
796;DHT22;381;48.770;9.188;2023-07-13T09:43:31;30.70;52.30
796;DHT22;381;48.770;9.188;2023-07-13T09:48:35;30.80;52.70
796;DHT22;381;48.770;9.188;2023-07-13T09:53:37;30.70;51.50
796;DHT22;381;48.770;9.188;2023-07-13T09:58:41;30.30;53.20
796;DHT22;381;48.770;9.188;2023-07-13T10:03:52;30.70;51.30
796;DHT22;381;48.770;9.188;2023-07-13T10:08:56;31.80;50.90
796;DHT22;381;48.770;9.188;2023-07-13T10:14:01;32.50;50.80
796;DHT22;381;48.770;9.188;2023-07-13T10:19:07;33.10;51.10
796;DHT22;381;48.770;9.188;2023-07-13T10:24:15;33.70;49.50
796;DHT22;381;48.770;9.188;2023-07-13T10:29:22;34.00;48.80
796;DHT22;381;48.770;9.188;2023-07-13T10:34:25;33.40;47.20
796;DHT22;381;48.770;9.188;2023-07-13T10:39:28;32.60;48.10
796;DHT22;381;48.770;9.188;2023-07-13T10:44:33;31.70;49.50
796;DHT22;381;48.770;9.188;2023-07-13T10:49:37;31.00;49.40
796;DHT22;381;48.770;9.188;2023-07-13T10:54:41;30.40;52.50
796;DHT22;381;48.770;9.188;2023-07-13T10:59:47;30.00;51.40
796;DHT22;381;48.770;9.188;2023-07-13T11:04:53;29.70;51.40
796;DHT22;381;48.770;9.188;2023-07-13T11:09:57;29.40;53.10
796;DHT22;381;48.770;9.188;2023-07-13T11:15:11;29.10;52.00
796;DHT22;381;48.770;9.188;2023-07-13T11:20:31;28.90;53.30
796;DHT22;381;48.770;9.188;2023-07-13T11:25:36;28.80;52.20
796;DHT22;381;48.770;9.188;2023-07-13T11:30:43;28.60;54.30
796;DHT22;381;48.770;9.188;2023-07-13T11:35:53;28.50;53.80
796;DHT22;381;48.770;9.188;2023-07-13T11:41:03;28.30;53.60
796;DHT22;381;48.770;9.188;2023-07-13T11:46:14;27.90;54.80
796;DHT22;381;48.770;9.188;2023-07-13T11:51:21;27.80;53.50
796;DHT22;381;48.770;9.188;2023-07-13T11:56:25;27.70;53.20
796;DHT22;381;48.770;9.188;2023-07-13T12:01:32;27.50;54.40
796;DHT22;381;48.770;9.188;2023-07-13T12:06:35;27.50;53.20
796;DHT22;381;48.770;9.188;2023-07-13T12:11:41;27.50;56.70
796;DHT22;381;48.770;9.188;2023-07-13T12:16:46;27.50;55.20
796;DHT22;381;48.770;9.188;2023-07-13T12:21:52;27.50;55.00
796;DHT22;381;48.770;9.188;2023-07-13T12:26:59;27.60;53.30
796;DHT22;381;48.770;9.188;2023-07-13T12:32:08;27.60;53.80
796;DHT22;381;48.770;9.188;2023-07-13T12:37:12;27.70;53.40
796;DHT22;381;48.770;9.188;2023-07-13T12:42:20;27.80;53.00
796;DHT22;381;48.770;9.188;2023-07-13T12:47:26;27.80;53.10
796;DHT22;381;48.770;9.188;2023-07-13T12:52:30;27.80;53.30
796;DHT22;381;48.770;9.188;2023-07-13T12:57:39;27.80;53.80
796;DHT22;381;48.770;9.188;2023-07-13T13:02:44;27.70;53.70
796;DHT22;381;48.770;9.188;2023-07-13T13:07:47;27.60;55.00
796;DHT22;381;48.770;9.188;2023-07-13T13:12:49;27.60;54.50
796;DHT22;381;48.770;9.188;2023-07-13T13:17:53;27.50;54.10
796;DHT22;381;48.770;9.188;2023-07-13T13:22:55;27.40;53.10
796;DHT22;381;48.770;9.188;2023-07-13T13:27:57;27.30;52.60
796;DHT22;381;48.770;9.188;2023-07-13T13:33:00;27.30;52.00
796;DHT22;381;48.770;9.188;2023-07-13T13:38:08;27.30;53.20
796;DHT22;381;48.770;9.188;2023-07-13T13:43:17;27.20;54.30
796;DHT22;381;48.770;9.188;2023-07-13T13:48:28;27.20;55.00
796;DHT22;381;48.770;9.188;2023-07-13T13:53:32;27.20;53.20
796;DHT22;381;48.770;9.188;2023-07-13T13:58:34;27.10;53.10
796;DHT22;381;48.770;9.188;2023-07-13T14:03:37;27.00;54.10
796;DHT22;381;48.770;9.188;2023-07-13T14:08:39;27.10;52.40
796;DHT22;381;48.770;9.188;2023-07-13T14:13:53;27.20;52.60
796;DHT22;381;48.770;9.188;2023-07-13T14:18:57;27.40;50.90
796;DHT22;381;48.770;9.188;2023-07-13T14:24:00;27.50;51.20
796;DHT22;381;48.770;9.188;2023-07-13T14:29:05;27.30;51.70
796;DHT22;381;48.770;9.188;2023-07-13T14:34:13;27.30;54.00
796;DHT22;381;48.770;9.188;2023-07-13T14:39:18;27.30;52.80
796;DHT22;381;48.770;9.188;2023-07-13T14:44:23;27.30;51.80
796;DHT22;381;48.770;9.188;2023-07-13T14:49:29;27.30;51.60
796;DHT22;381;48.770;9.188;2023-07-13T14:54:31;27.30;52.70
796;DHT22;381;48.770;9.188;2023-07-13T14:59:33;27.50;53.00
796;DHT22;381;48.770;9.188;2023-07-13T15:04:37;27.60;51.80
796;DHT22;381;48.770;9.188;2023-07-13T15:09:39;27.50;52.40
796;DHT22;381;48.770;9.188;2023-07-13T15:14:42;27.30;52.60
796;DHT22;381;48.770;9.188;2023-07-13T15:19:45;27.20;51.60
796;DHT22;381;48.770;9.188;2023-07-13T15:24:48;27.00;52.60
796;DHT22;381;48.770;9.188;2023-07-13T15:29:50;26.90;52.20
796;DHT22;381;48.770;9.188;2023-07-13T15:34:53;26.90;52.80
796;DHT22;381;48.770;9.188;2023-07-13T15:39:55;26.90;51.90
796;DHT22;381;48.770;9.188;2023-07-13T15:44:57;26.80;53.40
796;DHT22;381;48.770;9.188;2023-07-13T15:50:04;26.70;52.60
796;DHT22;381;48.770;9.188;2023-07-13T15:55:10;26.60;51.50
796;DHT22;381;48.770;9.188;2023-07-13T16:00:16;26.60;52.00
796;DHT22;381;48.770;9.188;2023-07-13T16:05:23;26.60;52.20
796;DHT22;381;48.770;9.188;2023-07-13T16:10:30;26.50;52.30
796;DHT22;381;48.770;9.188;2023-07-13T16:15:33;26.50;52.30
796;DHT22;381;48.770;9.188;2023-07-13T16:20:36;26.40;52.30
796;DHT22;381;48.770;9.188;2023-07-13T16:25:39;26.40;52.50
796;DHT22;381;48.770;9.188;2023-07-13T16:30:41;26.30;52.60
796;DHT22;381;48.770;9.188;2023-07-13T16:35:45;26.30;52.50
796;DHT22;381;48.770;9.188;2023-07-13T16:40:47;26.30;53.60
796;DHT22;381;48.770;9.188;2023-07-13T16:45:50;26.30;53.50
796;DHT22;381;48.770;9.188;2023-07-13T16:50:56;26.30;53.30
796;DHT22;381;48.770;9.188;2023-07-13T16:55:59;26.20;53.40
796;DHT22;381;48.770;9.188;2023-07-13T17:01:03;26.20;53.40
796;DHT22;381;48.770;9.188;2023-07-13T17:06:21;26.20;53.30
796;DHT22;381;48.770;9.188;2023-07-13T17:11:25;26.20;53.70
796;DHT22;381;48.770;9.188;2023-07-13T17:16:31;26.20;54.70
796;DHT22;381;48.770;9.188;2023-07-13T17:21:34;26.10;54.20
796;DHT22;381;48.770;9.188;2023-07-13T17:26:36;26.10;54.40
796;DHT22;381;48.770;9.188;2023-07-13T17:31:39;26.10;54.30
796;DHT22;381;48.770;9.188;2023-07-13T17:36:42;26.00;55.50
796;DHT22;381;48.770;9.188;2023-07-13T17:41:45;26.00;54.40
796;DHT22;381;48.770;9.188;2023-07-13T17:46:48;25.90;54.80
796;DHT22;381;48.770;9.188;2023-07-13T17:51:51;25.80;55.00
796;DHT22;381;48.770;9.188;2023-07-13T17:56:53;25.80;55.40
796;DHT22;381;48.770;9.188;2023-07-13T18:01:55;25.80;53.80
796;DHT22;381;48.770;9.188;2023-07-13T18:06:59;25.80;55.10
796;DHT22;381;48.770;9.188;2023-07-13T18:12:09;25.70;54.80
796;DHT22;381;48.770;9.188;2023-07-13T18:17:13;25.60;54.90
796;DHT22;381;48.770;9.188;2023-07-13T18:22:17;25.60;54.60
796;DHT22;381;48.770;9.188;2023-07-13T18:27:19;25.50;55.20
796;DHT22;381;48.770;9.188;2023-07-13T18:32:24;25.50;55.10
796;DHT22;381;48.770;9.188;2023-07-13T18:37:30;25.40;56.50
796;DHT22;381;48.770;9.188;2023-07-13T18:42:33;25.40;56.90
796;DHT22;381;48.770;9.188;2023-07-13T18:47:35;25.40;57.00
796;DHT22;381;48.770;9.188;2023-07-13T18:52:39;25.30;58.10
796;DHT22;381;48.770;9.188;2023-07-13T18:57:41;25.20;59.60
796;DHT22;381;48.770;9.188;2023-07-13T19:02:43;25.20;57.70
796;DHT22;381;48.770;9.188;2023-07-13T19:07:47;25.10;58.50
796;DHT22;381;48.770;9.188;2023-07-13T19:12:51;25.00;60.00
796;DHT22;381;48.770;9.188;2023-07-13T19:17:55;25.10;59.00
796;DHT22;381;48.770;9.188;2023-07-13T19:23:02;25.00;59.80
796;DHT22;381;48.770;9.188;2023-07-13T19:28:27;24.90;60.90
796;DHT22;381;48.770;9.188;2023-07-13T19:33:32;24.90;59.70
796;DHT22;381;48.770;9.188;2023-07-13T19:38:36;24.90;61.60
796;DHT22;381;48.770;9.188;2023-07-13T19:43:38;24.90;59.30
796;DHT22;381;48.770;9.188;2023-07-13T19:48:42;24.80;60.10
796;DHT22;381;48.770;9.188;2023-07-13T19:53:46;24.80;62.20
796;DHT22;381;48.770;9.188;2023-07-13T19:58:48;24.80;61.40
796;DHT22;381;48.770;9.188;2023-07-13T20:03:51;24.70;62.80
796;DHT22;381;48.770;9.188;2023-07-13T20:08:55;24.70;63.10
796;DHT22;381;48.770;9.188;2023-07-13T20:13:57;24.70;61.40
796;DHT22;381;48.770;9.188;2023-07-13T20:18:59;24.70;63.70
796;DHT22;381;48.770;9.188;2023-07-13T20:24:12;24.60;64.60
796;DHT22;381;48.770;9.188;2023-07-13T20:29:16;24.50;64.40
796;DHT22;381;48.770;9.188;2023-07-13T20:34:21;24.50;62.60
796;DHT22;381;48.770;9.188;2023-07-13T20:39:25;24.40;64.90
796;DHT22;381;48.770;9.188;2023-07-13T20:44:27;24.40;64.30
796;DHT22;381;48.770;9.188;2023-07-13T20:49:29;24.40;63.40
796;DHT22;381;48.770;9.188;2023-07-13T20:54:33;24.30;63.00
796;DHT22;381;48.770;9.188;2023-07-13T20:59:35;24.20;61.60
796;DHT22;381;48.770;9.188;2023-07-13T21:04:37;24.10;63.50
796;DHT22;381;48.770;9.188;2023-07-13T21:09:41;23.90;62.80
796;DHT22;381;48.770;9.188;2023-07-13T21:14:43;23.80;63.30
796;DHT22;381;48.770;9.188;2023-07-13T21:19:45;23.60;63.00
796;DHT22;381;48.770;9.188;2023-07-13T21:24:49;23.50;63.60
796;DHT22;381;48.770;9.188;2023-07-13T21:29:51;23.40;64.00
796;DHT22;381;48.770;9.188;2023-07-13T21:34:54;23.20;64.00
796;DHT22;381;48.770;9.188;2023-07-13T21:39:58;23.10;64.30
796;DHT22;381;48.770;9.188;2023-07-13T21:45:00;23.10;65.80
796;DHT22;381;48.770;9.188;2023-07-13T21:50:02;23.00;66.30
796;DHT22;381;48.770;9.188;2023-07-13T21:55:13;23.00;66.90
796;DHT22;381;48.770;9.188;2023-07-13T22:00:18;22.90;66.00
796;DHT22;381;48.770;9.188;2023-07-13T22:05:21;22.80;67.60
796;DHT22;381;48.770;9.188;2023-07-13T22:10:25;22.70;67.00
796;DHT22;381;48.770;9.188;2023-07-13T22:15:27;22.70;66.40
796;DHT22;381;48.770;9.188;2023-07-13T22:20:30;22.60;67.70
796;DHT22;381;48.770;9.188;2023-07-13T22:25:34;22.60;67.30
796;DHT22;381;48.770;9.188;2023-07-13T22:30:37;22.60;67.20
796;DHT22;381;48.770;9.188;2023-07-13T22:35:39;22.60;66.40
796;DHT22;381;48.770;9.188;2023-07-13T22:40:43;22.50;66.50
796;DHT22;381;48.770;9.188;2023-07-13T22:45:47;22.40;67.00
796;DHT22;381;48.770;9.188;2023-07-13T22:50:51;22.30;67.30
796;DHT22;381;48.770;9.188;2023-07-13T22:55:55;22.30;67.50
796;DHT22;381;48.770;9.188;2023-07-13T23:00:58;22.20;67.60
796;DHT22;381;48.770;9.188;2023-07-13T23:06:01;22.20;68.00
796;DHT22;381;48.770;9.188;2023-07-13T23:11:08;22.10;66.20
796;DHT22;381;48.770;9.188;2023-07-13T23:16:11;22.00;67.90
796;DHT22;381;48.770;9.188;2023-07-13T23:21:16;22.00;68.80
796;DHT22;381;48.770;9.188;2023-07-13T23:26:22;22.00;68.00
796;DHT22;381;48.770;9.188;2023-07-13T23:31:27;21.90;68.30
796;DHT22;381;48.770;9.188;2023-07-13T23:36:30;21.90;69.30
796;DHT22;381;48.770;9.188;2023-07-13T23:41:33;21.90;68.80
796;DHT22;381;48.770;9.188;2023-07-13T23:46:38;21.80;69.30
796;DHT22;381;48.770;9.188;2023-07-13T23:51:42;21.80;69.10
796;DHT22;381;48.770;9.188;2023-07-13T23:56:46;21.80;70.20
